createdAt,value
2022-09-10T00:00:10.293Z,245.13
2022-09-10T00:02:39.316Z,234.77
2022-09-10T00:05:10.053Z,240.88
2022-09-10T00:07:38.810Z,244.32
2022-09-10T00:10:06.857Z,227.90
2022-09-10T00:12:35.945Z,241.65
2022-09-10T00:15:06.402Z,232.77
2022-09-10T00:17:36.898Z,242.13
2022-09-10T00:20:05.882Z,244.18
2022-09-10T00:22:34.426Z,234.65
2022-09-10T00:25:06.256Z,238.73
2022-09-10T00:27:37.203Z,235.68
2022-09-10T00:30:05.827Z,237.63
2022-09-10T00:32:35.521Z,242.88
2022-09-10T00:35:03.536Z,239.88
2022-09-10T00:37:31.521Z,240.20
2022-09-10T00:39:59.624Z,239.60
2022-09-10T00:42:27.723Z,235.27
2022-09-10T00:45:04.686Z,239.60
2022-09-10T00:47:36.708Z,238.25
2022-09-10T00:50:08.812Z,244.77
2022-09-10T00:52:39.911Z,229.70
2022-09-10T00:55:09.118Z,229.13
2022-09-10T00:57:37.060Z,237.85
2022-09-10T01:00:11.777Z,233.13
2022-09-10T01:02:41.293Z,232.63
2022-09-10T01:05:10.554Z,241.98
2022-09-10T01:07:39.209Z,234.60
2022-09-10T01:10:09.822Z,239.02
2022-09-10T01:12:54.792Z,232.77
2022-09-10T01:15:27.913Z,234.77
2022-09-10T01:18:09.377Z,235.02
2022-09-10T01:20:51.213Z,237.73
2022-09-10T01:23:50.912Z,236.27
2022-09-10T01:26:29.336Z,237.55
2022-09-10T01:29:02.410Z,231.13
2022-09-10T01:31:33.713Z,230.95
2022-09-10T01:34:05.793Z,238.27
2022-09-10T01:36:36.696Z,236.02
2022-09-10T01:39:04.642Z,235.38
2022-09-10T01:41:32.617Z,225.50
2022-09-10T01:44:10.380Z,234.50
2022-09-10T01:46:46.712Z,234.48
2022-09-10T01:49:23.410Z,235.80
2022-09-10T01:52:04.287Z,232.55
2022-09-10T01:54:40.983Z,237.55
2022-09-10T01:57:19.570Z,234.27
2022-09-10T01:59:54.413Z,229.50
2022-09-10T02:02:23.881Z,227.68
2022-09-10T02:04:52.954Z,230.38
2022-09-10T02:07:23.922Z,223.20
2022-09-10T02:09:52.566Z,236.40
2022-09-10T02:12:21.661Z,232.73
2022-09-10T02:14:51.300Z,236.95
2022-09-10T02:17:20.268Z,231.48
2022-09-10T02:19:49.158Z,231.30
2022-09-10T02:22:17.465Z,230.50
2022-09-10T02:24:45.506Z,227.77
2022-09-10T02:27:13.822Z,235.63
2022-09-10T02:29:42.321Z,231.02
2022-09-10T02:32:11.572Z,233.10
2022-09-10T02:34:41.083Z,230.88
2022-09-10T02:37:09.224Z,226.63
2022-09-10T02:39:37.200Z,237.98
2022-09-10T02:42:05.543Z,231.77
2022-09-10T02:44:33.411Z,239.07
2022-09-10T02:47:01.317Z,236.90
2022-09-10T02:49:31.734Z,226.90
2022-09-10T02:51:59.545Z,235.35
2022-09-10T02:54:27.362Z,231.27
2022-09-10T02:56:56.970Z,231.77
2022-09-10T02:59:25.101Z,226.23
2022-09-10T03:01:54.543Z,232.70
2022-09-10T03:04:22.349Z,237.70
2022-09-10T03:06:52.130Z,238.52
2022-09-10T03:09:20.297Z,233.02
2022-09-10T03:11:48.105Z,239.43
2022-09-10T03:14:20.265Z,229.15
2022-09-10T03:16:48.666Z,223.77
2022-09-10T03:19:17.491Z,218.75
2022-09-10T03:21:47.597Z,224.13
2022-09-10T03:24:17.167Z,232.27
2022-09-10T03:26:44.977Z,228.75
2022-09-10T03:29:13.361Z,230.13
2022-09-10T03:31:42.756Z,235.90
2022-09-10T03:34:12.585Z,234.63
2022-09-10T03:36:41.037Z,237.45
2022-09-10T03:39:08.924Z,229.80
2022-09-10T03:41:38.209Z,228.50
2022-09-10T03:44:06.455Z,235.05
2022-09-10T03:46:34.679Z,225.75
2022-09-10T03:49:02.679Z,231.23
2022-09-10T03:51:31.161Z,240.13
2022-09-10T03:54:00.387Z,224.88
2022-09-10T03:56:28.813Z,230.38
2022-09-10T03:58:58.182Z,221.00
2022-09-10T04:01:26.453Z,233.93
2022-09-10T04:03:56.945Z,235.10
2022-09-10T04:06:25.063Z,235.25
2022-09-10T04:08:54.039Z,239.25
2022-09-10T04:11:24.093Z,226.77
2022-09-10T04:13:52.903Z,226.30
2022-09-10T04:16:23.473Z,238.50
2022-09-10T04:18:51.671Z,229.05
2022-09-10T04:21:20.321Z,234.10
2022-09-10T04:23:48.109Z,224.75
2022-09-10T04:26:17.635Z,224.23
2022-09-10T04:28:45.877Z,218.98
2022-09-10T04:31:13.838Z,227.30
2022-09-10T04:33:43.069Z,230.07
2022-09-10T04:36:11.204Z,220.32
2022-09-10T04:38:40.632Z,221.77
2022-09-10T04:41:09.499Z,229.90
2022-09-10T04:43:38.052Z,228.93
2022-09-10T04:46:06.302Z,227.80
2022-09-10T04:48:34.445Z,225.27
2022-09-10T04:51:16.208Z,217.20
2022-09-10T04:53:45.392Z,228.65
2022-09-10T04:56:13.622Z,227.65
2022-09-10T04:58:42.476Z,234.05
2022-09-10T05:01:10.862Z,230.00
2022-09-10T05:03:39.157Z,233.80
2022-09-10T05:06:08.728Z,234.05
2022-09-10T05:08:36.949Z,224.05
2022-09-10T05:11:05.342Z,237.30
2022-09-10T05:13:33.665Z,235.68
2022-09-10T05:16:01.701Z,233.23
2022-09-10T05:18:30.133Z,224.30
2022-09-10T05:20:58.191Z,230.85
2022-09-10T05:23:27.469Z,228.35
2022-09-10T05:25:56.868Z,225.57
2022-09-10T05:28:24.882Z,225.80
2022-09-10T05:30:52.731Z,221.48
2022-09-10T05:33:20.569Z,233.35
2022-09-10T05:35:51.929Z,220.40
2022-09-10T05:38:20.281Z,229.52
2022-09-10T05:40:50.437Z,215.60
2022-09-10T05:43:18.332Z,225.73
2022-09-10T05:45:47.200Z,227.55
2022-09-10T05:48:15.091Z,226.65
2022-09-10T05:50:45.509Z,223.68
2022-09-10T05:53:13.731Z,233.45
2022-09-10T05:55:41.546Z,215.93
2022-09-10T05:58:10.899Z,229.82
2022-09-10T06:00:38.880Z,221.00
2022-09-10T06:03:07.938Z,223.35
2022-09-10T06:05:35.961Z,221.10
2022-09-10T06:08:08.503Z,224.73
2022-09-10T06:10:37.041Z,216.60
2022-09-10T06:13:05.078Z,217.27
2022-09-10T06:15:35.739Z,230.70
2022-09-10T06:49:24.790Z,200.02
2022-09-10T06:51:53.460Z,225.90
2022-09-10T06:54:21.600Z,244.18
2022-09-10T06:56:50.064Z,239.18
2022-09-10T06:59:18.434Z,233.57
2022-09-10T07:01:47.464Z,235.43
2022-09-10T07:04:15.588Z,243.02
2022-09-10T07:06:47.782Z,239.35
2022-09-10T07:09:18.911Z,227.25
2022-09-10T07:11:46.955Z,242.13
2022-09-10T07:14:15.264Z,235.27
2022-09-10T07:16:45.700Z,248.80
2022-09-10T07:19:15.185Z,255.80
2022-09-10T07:21:44.949Z,256.58
2022-09-10T07:24:16.094Z,249.65
2022-09-10T07:26:46.667Z,251.93
2022-09-10T07:29:14.765Z,251.35
2022-09-10T07:31:45.686Z,250.52
2022-09-10T07:34:16.477Z,256.15
2022-09-10T07:36:45.906Z,260.92
2022-09-10T07:39:13.887Z,258.90
2022-09-10T07:41:41.884Z,265.80
2022-09-10T07:44:09.745Z,271.80
2022-09-10T07:46:38.033Z,261.98
2022-09-10T07:49:05.835Z,264.40
2022-09-10T07:51:35.355Z,257.92
2022-09-10T07:54:05.330Z,255.60
2022-09-10T07:56:34.339Z,259.40
2022-09-10T07:59:02.755Z,264.80
2022-09-10T08:01:31.847Z,253.60
2022-09-10T08:04:00.086Z,252.43
2022-09-10T08:06:28.048Z,255.82
2022-09-10T08:08:56.204Z,256.77
2022-09-10T08:11:25.896Z,254.10
2022-09-10T08:13:56.824Z,260.48
2022-09-10T08:16:26.867Z,270.52
2022-09-10T08:18:57.283Z,260.70
2022-09-10T08:21:25.911Z,243.98
2022-09-10T08:23:55.317Z,256.92
2022-09-10T08:26:25.556Z,261.50
2022-09-10T08:28:54.040Z,252.32
2022-09-10T08:31:22.189Z,263.13
2022-09-10T08:33:51.269Z,268.85
2022-09-10T08:36:21.785Z,253.63
2022-09-10T08:38:50.479Z,259.80
2022-09-10T08:41:32.523Z,261.75
2022-09-10T08:44:48.593Z,273.23
2022-09-10T08:47:07.370Z,266.15
2022-09-10T08:49:38.198Z,256.45
2022-09-10T08:52:13.400Z,263.60
2022-09-10T08:54:43.905Z,266.75
2022-09-10T08:57:17.541Z,261.65
2022-09-10T08:59:46.601Z,263.23
2022-09-10T09:02:38.121Z,270.65
2022-09-10T09:05:14.297Z,274.85
2022-09-10T09:07:42.693Z,295.13
2022-09-10T09:10:23.992Z,266.10
2022-09-10T09:13:17.244Z,264.25
2022-09-10T09:15:51.758Z,269.23
2022-09-10T09:18:30.296Z,270.80
2022-09-10T09:21:00.714Z,271.52
2022-09-10T09:23:34.043Z,269.08
2022-09-10T09:26:05.140Z,271.77
2022-09-10T09:28:39.588Z,275.23
2022-09-10T09:31:17.953Z,282.52
2022-09-10T09:33:46.754Z,267.00
2022-09-10T09:36:18.072Z,274.85
2022-09-10T09:38:50.915Z,275.48
2022-09-10T09:41:23.036Z,284.08
2022-09-10T09:43:56.103Z,288.27
2022-09-10T09:46:25.731Z,285.80
2022-09-10T09:48:59.507Z,286.33
2022-09-10T09:51:30.697Z,279.55
2022-09-10T09:54:39.256Z,280.85
2022-09-10T09:56:59.139Z,280.98
2022-09-10T09:59:30.420Z,283.52
2022-09-10T10:02:01.012Z,285.52
2022-09-10T10:04:31.056Z,288.90
2022-09-10T10:07:00.866Z,295.38
2022-09-10T10:09:30.246Z,293.70
2022-09-10T10:11:59.423Z,286.13
2022-09-10T10:14:41.635Z,287.98
2022-09-10T10:17:43.561Z,285.67
2022-09-10T10:20:14.071Z,279.25
2022-09-10T10:22:43.473Z,281.98
2022-09-10T10:25:38.395Z,282.35
2022-09-10T10:28:15.843Z,287.17
2022-09-10T10:30:45.412Z,262.58
2022-09-10T10:33:19.315Z,260.60
2022-09-10T10:35:49.393Z,273.10
2022-09-10T10:38:31.730Z,274.02
2022-09-10T10:41:32.215Z,272.25
2022-09-10T10:44:24.126Z,273.38
2022-09-10T10:47:05.811Z,274.77
2022-09-10T10:49:47.649Z,264.60
2022-09-10T10:52:19.957Z,258.77
2022-09-10T10:54:59.799Z,263.30
2022-09-10T10:57:32.417Z,258.13
2022-09-10T11:00:03.996Z,271.45
2022-09-10T11:02:50.619Z,268.23
2022-09-10T11:05:21.961Z,266.60
2022-09-10T11:07:50.319Z,300.80
2022-09-10T11:10:23.474Z,272.30
2022-09-10T11:12:55.844Z,296.25
2022-09-10T11:15:30.360Z,274.80
2022-09-10T11:18:04.944Z,278.58
2022-09-10T11:20:34.871Z,262.13
2022-09-10T11:23:09.486Z,267.38
2022-09-10T11:25:40.737Z,273.63
2022-09-10T11:28:13.407Z,271.90
2022-09-10T11:30:42.758Z,258.95
2022-09-10T11:33:16.795Z,274.10
2022-09-10T11:35:47.125Z,277.60
2022-09-10T11:38:23.181Z,273.38
2022-09-10T11:40:56.358Z,285.25
2022-09-10T11:43:29.834Z,284.05
2022-09-10T11:45:59.650Z,280.83
2022-09-10T11:48:32.651Z,293.58
2022-09-10T11:51:03.526Z,287.42
2022-09-10T11:53:31.790Z,276.98
2022-09-10T11:56:13.944Z,290.52
2022-09-10T11:58:49.076Z,293.27
2022-09-10T12:01:25.921Z,287.60
2022-09-10T12:04:23.304Z,294.77
2022-09-10T12:07:03.407Z,295.75
2022-09-10T12:09:37.787Z,283.23
2022-09-10T12:12:10.829Z,289.88
2022-09-10T12:14:40.580Z,284.52
2022-09-10T12:17:14.324Z,278.30
2022-09-10T12:19:47.070Z,289.42
2022-09-10T12:22:21.161Z,287.98
2022-09-10T12:24:54.703Z,273.48
2022-09-10T12:27:23.095Z,280.98
2022-09-10T12:29:51.131Z,288.38
2022-09-10T12:32:36.844Z,280.92
2022-09-10T12:35:47.025Z,274.90
2022-09-10T12:38:51.920Z,282.33
2022-09-10T12:41:57.953Z,288.20
2022-09-10T12:44:34.444Z,291.90
2022-09-10T12:47:53.937Z,281.98
2022-09-10T12:50:35.102Z,298.73
2022-09-10T12:53:34.413Z,329.13
2022-09-10T12:56:16.267Z,310.80
2022-09-10T12:58:55.846Z,306.25
2022-09-10T13:01:36.813Z,309.17
2022-09-10T13:04:04.881Z,300.98
2022-09-10T13:06:38.290Z,302.58
2022-09-10T13:09:18.048Z,307.48
2022-09-10T13:11:49.557Z,308.13
2022-09-10T13:14:20.850Z,300.70
2022-09-10T13:16:48.988Z,306.83
2022-09-10T13:19:48.877Z,295.17
2022-09-10T13:23:04.245Z,299.00
2022-09-10T13:25:36.693Z,288.75
2022-09-10T13:28:45.100Z,289.50
2022-09-10T13:31:18.412Z,288.63
2022-09-10T13:34:09.402Z,284.50
2022-09-10T13:36:42.426Z,278.88
2022-09-10T13:39:28.932Z,274.90
2022-09-10T13:42:18.696Z,284.42
2022-09-10T13:44:59.811Z,270.90
2022-09-10T13:47:37.633Z,290.02
2022-09-10T13:50:13.340Z,300.48
2022-09-10T13:52:45.229Z,282.33
2022-09-10T13:55:19.819Z,288.42
2022-09-10T13:57:49.760Z,290.83
2022-09-10T14:00:23.786Z,300.70
2022-09-10T14:02:54.964Z,300.08
2022-09-10T14:05:25.987Z,297.02
2022-09-10T14:07:55.023Z,304.30
2022-09-10T14:10:23.104Z,293.98
2022-09-10T14:12:51.871Z,294.75
2022-09-10T14:15:25.331Z,276.92
2022-09-10T14:17:58.577Z,284.58
2022-09-10T14:20:27.877Z,270.20
2022-09-10T14:23:00.207Z,266.85
2022-09-10T14:25:33.480Z,261.60
2022-09-10T14:28:28.601Z,275.08
2022-09-10T14:31:20.550Z,278.83
2022-09-10T14:33:50.142Z,269.80
2022-09-10T14:36:19.699Z,266.35
2022-09-10T14:38:55.734Z,253.65
2022-09-10T14:41:25.985Z,252.07
2022-09-10T14:44:15.751Z,262.38
2022-09-10T14:46:50.237Z,251.15
2022-09-10T14:49:20.384Z,258.08
2022-09-10T14:51:48.498Z,259.73
2022-09-10T14:54:16.357Z,261.75
2022-09-10T14:56:46.409Z,273.40
2022-09-10T14:59:16.909Z,268.55
2022-09-10T15:01:48.288Z,272.92
2022-09-10T15:04:17.500Z,271.90
2022-09-10T15:06:46.801Z,276.50
2022-09-10T15:09:15.028Z,279.15
2022-09-10T15:11:50.984Z,283.88
2022-09-10T15:14:20.077Z,278.00
2022-09-10T15:16:51.759Z,279.95
2022-09-10T15:19:19.832Z,271.52
2022-09-10T15:21:49.528Z,273.58
2022-09-10T15:24:18.825Z,277.15
2022-09-10T15:26:47.002Z,281.83
2022-09-10T15:29:15.828Z,275.63
2022-09-10T15:31:44.748Z,270.80
2022-09-10T15:34:13.008Z,286.23
2022-09-10T15:36:42.015Z,288.33
2022-09-10T15:39:13.273Z,279.80
2022-09-10T15:41:44.734Z,278.25
2022-09-10T15:44:13.190Z,278.80
2022-09-10T15:46:42.534Z,284.65
2022-09-10T15:49:12.618Z,290.48
2022-09-10T15:51:41.409Z,271.20
2022-09-10T15:54:12.175Z,276.27
2022-09-10T15:56:40.799Z,282.50
2022-09-10T15:59:10.321Z,280.88
2022-09-10T16:01:39.027Z,286.35
2022-09-10T16:04:07.380Z,285.90
2022-09-10T16:06:37.745Z,264.52
2022-09-10T16:09:09.224Z,270.38
2022-09-10T16:11:40.068Z,263.08
2022-09-10T16:14:09.862Z,272.23
2022-09-10T16:16:37.719Z,267.02
2022-09-10T16:19:05.787Z,265.60
2022-09-10T16:21:36.261Z,254.82
2022-09-10T16:24:05.260Z,260.77
2022-09-10T16:26:34.576Z,243.00
2022-09-10T16:29:06.389Z,252.23
2022-09-10T16:31:36.363Z,252.13
2022-09-10T16:34:05.913Z,247.80
2022-09-10T16:36:34.673Z,250.60
2022-09-10T16:39:02.961Z,248.20
2022-09-10T16:41:31.832Z,254.40
2022-09-10T16:44:00.549Z,247.52
2022-09-10T16:46:30.333Z,250.38
2022-09-10T16:48:59.505Z,253.07
2022-09-10T16:51:29.136Z,260.00
2022-09-10T16:54:02.482Z,257.73
2022-09-10T16:56:33.605Z,254.38
2022-09-10T16:59:01.625Z,260.77
2022-09-10T17:01:31.266Z,258.42
2022-09-10T17:03:59.330Z,266.25
2022-09-10T17:06:29.292Z,262.95
2022-09-10T17:08:58.771Z,262.95
2022-09-10T17:11:27.706Z,252.45
2022-09-10T17:13:56.936Z,253.00
2022-09-10T17:16:26.377Z,260.70
2022-09-10T17:18:59.961Z,241.98
2022-09-10T17:21:29.073Z,250.38
2022-09-10T17:23:57.604Z,256.98
2022-09-10T17:26:27.040Z,247.93
2022-09-10T17:28:56.065Z,254.82
2022-09-10T17:31:24.573Z,238.35
2022-09-10T17:33:52.777Z,262.25
2022-09-10T17:36:22.216Z,239.75
2022-09-10T17:38:50.513Z,244.55
2022-09-10T17:41:18.331Z,248.02
2022-09-10T17:43:47.204Z,260.88
2022-09-10T17:46:17.776Z,257.25
2022-09-10T17:48:45.805Z,255.27
2022-09-10T17:51:15.326Z,258.80
2022-09-10T17:53:44.938Z,256.38
2022-09-10T17:56:14.666Z,255.88
2022-09-10T17:58:43.117Z,258.80
2022-09-10T18:01:13.895Z,253.30
2022-09-10T18:03:42.838Z,254.43
2022-09-10T18:06:11.921Z,260.92
2022-09-10T18:08:41.662Z,257.73
2022-09-10T18:11:13.142Z,249.35
2022-09-10T18:13:41.277Z,248.23
2022-09-10T18:16:12.429Z,253.45
2022-09-10T18:18:40.445Z,236.68
2022-09-10T18:21:13.021Z,245.90
2022-09-10T18:23:41.667Z,255.80
2022-09-10T18:26:17.964Z,252.02
2022-09-10T18:28:46.661Z,235.45
2022-09-10T18:31:14.663Z,250.52
2022-09-10T18:33:42.565Z,254.60
2022-09-10T18:36:15.092Z,249.70
2022-09-10T18:38:43.706Z,251.00
2022-09-10T18:41:20.880Z,248.55
2022-09-10T18:43:49.465Z,251.32
2022-09-10T18:46:17.834Z,252.63
2022-09-10T18:48:46.700Z,255.40
2022-09-10T18:51:15.859Z,250.95
2022-09-10T18:53:45.298Z,267.95
2022-09-10T18:56:15.506Z,250.55
2022-09-10T18:58:49.516Z,254.07
2022-09-10T19:01:17.776Z,271.05
2022-09-10T19:03:49.999Z,266.23
2022-09-10T19:06:23.059Z,254.68
2022-09-10T19:08:53.219Z,254.68
2022-09-10T19:11:24.464Z,255.35
2022-09-10T19:13:55.033Z,245.07
2022-09-10T19:16:25.007Z,252.60
2022-09-10T19:18:53.566Z,241.43
2022-09-10T19:21:22.303Z,240.40
2022-09-10T19:23:53.416Z,232.82
2022-09-10T19:26:25.885Z,244.45
2022-09-10T19:28:57.371Z,253.77
2022-09-10T19:31:26.155Z,253.40
2022-09-10T19:33:56.550Z,253.57
2022-09-10T19:36:27.462Z,253.77
2022-09-10T19:38:55.710Z,242.00
2022-09-10T19:41:25.560Z,235.60
2022-09-10T19:43:57.484Z,238.23
2022-09-10T19:46:28.406Z,251.98
2022-09-10T19:48:58.353Z,255.43
2022-09-10T19:51:30.021Z,256.65
2022-09-10T19:53:58.225Z,242.05
2022-09-10T19:56:28.149Z,248.00
2022-09-10T19:58:57.916Z,239.63
2022-09-10T20:01:27.427Z,249.07
2022-09-10T20:03:59.263Z,243.98
2022-09-10T20:06:27.249Z,240.18
2022-09-10T20:08:55.636Z,262.27
2022-09-10T20:11:24.949Z,253.20
2022-09-10T20:13:56.040Z,245.55
2022-09-10T20:16:26.199Z,244.57
2022-09-10T20:18:54.241Z,243.32
2022-09-10T20:21:24.832Z,245.05
2022-09-10T20:23:55.648Z,251.30
2022-09-10T20:26:25.642Z,240.25
2022-09-10T20:28:54.669Z,240.50
2022-09-10T20:31:23.514Z,243.30
2022-09-10T20:33:55.513Z,248.32
2022-09-10T20:36:24.541Z,233.43
2022-09-10T20:38:53.272Z,241.85
2022-09-10T20:41:21.368Z,248.25
2022-09-10T20:43:51.724Z,251.27
2022-09-10T20:46:22.135Z,246.30
2022-09-10T20:48:52.490Z,246.55
2022-09-10T20:51:21.025Z,251.05
2022-09-10T20:53:49.718Z,258.23
2022-09-10T20:56:19.400Z,254.57
2022-09-10T20:58:47.946Z,243.45
2022-09-10T21:01:18.952Z,253.90
2022-09-10T21:03:48.167Z,241.40
2022-09-10T21:06:19.704Z,247.63
2022-09-10T21:08:49.296Z,244.13
2022-09-10T21:11:18.787Z,246.55
2022-09-10T21:13:49.773Z,245.65
2022-09-10T21:16:18.944Z,246.80
2022-09-10T21:18:52.209Z,252.35
2022-09-10T21:21:25.710Z,231.52
2022-09-10T21:23:55.065Z,244.15
2022-09-10T21:26:25.161Z,230.52
2022-09-10T21:28:53.852Z,229.48
2022-09-10T21:31:21.696Z,241.25
2022-09-10T21:33:50.110Z,238.27
2022-09-10T21:36:20.016Z,229.38
2022-09-10T21:38:50.127Z,234.15
2022-09-10T21:41:21.442Z,234.05
2022-09-10T21:43:49.314Z,229.45
2022-09-10T21:46:17.150Z,228.43
2022-09-10T21:48:45.125Z,235.35
2022-09-10T21:51:14.491Z,234.75
2022-09-10T21:53:43.294Z,241.18
2022-09-10T21:56:13.581Z,245.00
2022-09-10T21:58:41.960Z,237.05
2022-09-10T22:01:11.205Z,249.70
2022-09-10T22:03:48.168Z,247.35
2022-09-10T22:06:18.721Z,230.02
2022-09-10T22:08:48.188Z,244.18
2022-09-10T22:11:21.548Z,247.73
2022-09-10T22:13:52.928Z,237.38
2022-09-10T22:16:21.638Z,250.23
2022-09-10T22:18:49.886Z,236.93
2022-09-10T22:21:18.621Z,238.57
2022-09-10T22:23:46.452Z,241.80
2022-09-10T22:26:18.036Z,237.52
2022-09-10T22:28:46.280Z,241.18
2022-09-10T22:31:16.397Z,239.13
2022-09-10T22:33:45.692Z,247.45
2022-09-10T22:36:15.229Z,250.02
2022-09-10T22:38:44.156Z,242.23
2022-09-10T22:41:14.488Z,242.30
2022-09-10T22:43:44.025Z,251.32
2022-09-10T22:46:12.759Z,247.30
2022-09-10T22:48:43.876Z,250.70
2022-09-10T22:51:14.577Z,241.73
2022-09-10T22:53:44.835Z,245.27
2022-09-10T22:56:14.371Z,249.93
2022-09-10T22:58:44.493Z,254.82
2022-09-10T23:01:14.637Z,251.57
2022-09-10T23:03:44.398Z,259.17
2022-09-10T23:06:14.864Z,237.75
2022-09-10T23:08:44.280Z,251.10
2022-09-10T23:11:15.297Z,241.80
2022-09-10T23:13:45.165Z,251.05
2022-09-10T23:16:14.702Z,243.95
2022-09-10T23:18:43.405Z,238.63
2022-09-10T23:21:11.944Z,247.65
2022-09-10T23:23:39.784Z,257.67
2022-09-10T23:26:09.383Z,246.43
2022-09-10T23:28:37.831Z,244.73
2022-09-10T23:31:13.493Z,239.05
2022-09-10T23:33:42.581Z,251.43
2022-09-10T23:36:13.574Z,248.27
2022-09-10T23:38:44.386Z,243.75
2022-09-10T23:41:16.222Z,243.32
2022-09-10T23:43:46.520Z,251.75
2022-09-10T23:46:17.247Z,242.52
2022-09-10T23:48:46.801Z,233.93
2022-09-10T23:51:19.415Z,233.00
2022-09-10T23:53:49.271Z,230.18
2022-09-10T23:56:19.762Z,235.25
2022-09-10T23:58:48.956Z,238.32
